Time;durP1;ratioP1;P1;durP2;ratioP2;P2;SDS_P1;SDS_P2;PMS_P1;PMS_P2;Temp;Humidity;BMP_temperature;BMP_pressure;BME280_temperature;BME280_humidity;BME280_pressure;Samples;Min_cycle;Max_cycle;Signal;HPM_P1;HPM_P2
2024/02/17 00:00:20;;;;;;;17.97;9.77;;;11.30;99.90;;;;;;4975321;28;20833;-71
2024/02/17 00:02:46;;;;;;;21.63;12.57;;;11.40;99.90;;;;;;4971014;28;20522;-70
2024/02/17 00:05:14;;;;;;;15.30;9.37;;;11.40;99.90;;;;;;4975397;28;20470;-70
2024/02/17 00:07:40;;;;;;;18.33;8.77;;;11.50;99.90;;;;;;4974799;28;20482;-71
2024/02/17 00:10:08;;;;;;;21.60;9.60;;;11.50;99.90;;;;;;4970582;28;20457;-71
2024/02/17 00:12:36;;;;;;;23.17;9.70;;;11.60;99.90;;;;;;4972560;28;20384;-70
2024/02/17 00:15:03;;;;;;;15.30;8.60;;;11.60;99.90;;;;;;4975198;28;20887;-73
2024/02/17 00:17:30;;;;;;;15.97;9.30;;;11.80;99.90;;;;;;4977893;28;20574;-70
2024/02/17 00:19:57;;;;;;;10.97;7.70;;;11.80;99.90;;;;;;4973319;28;21013;-71
2024/02/17 00:22:25;;;;;;;14.83;8.03;;;11.80;99.90;;;;;;4971644;28;20477;-71
2024/02/17 00:24:51;;;;;;;14.63;9.40;;;11.70;99.90;;;;;;4979262;28;20454;-70
2024/02/17 00:27:18;;;;;;;17.70;7.73;;;11.70;99.90;;;;;;4973470;28;20482;-70
2024/02/17 00:29:45;;;;;;;13.60;8.53;;;11.80;99.90;;;;;;4972987;28;20849;-70
2024/02/17 00:32:11;;;;;;;14.30;9.00;;;11.70;99.90;;;;;;4974026;28;20473;-70
2024/02/17 00:34:39;;;;;;;17.83;9.73;;;11.70;99.90;;;;;;4979089;28;20889;-70
2024/02/17 00:37:06;;;;;;;14.10;6.97;;;11.70;99.90;;;;;;4967947;28;20483;-70
2024/02/17 00:39:34;;;;;;;13.47;7.57;;;11.60;99.90;;;;;;4975683;28;20451;-70
2024/02/17 00:42:01;;;;;;;18.43;10.40;;;11.80;99.90;;;;;;4973459;28;20960;-71
2024/02/17 00:44:28;;;;;;;16.97;9.97;;;11.90;99.90;;;;;;4973201;28;20703;-71
2024/02/17 00:46:55;;;;;;;16.93;8.93;;;11.80;99.90;;;;;;4977044;28;21055;-71
2024/02/17 00:49:22;;;;;;;14.17;9.30;;;11.80;99.90;;;;;;4970510;28;20438;-71
2024/02/17 00:51:48;;;;;;;17.83;9.80;;;11.70;99.90;;;;;;4975357;28;20462;-71
2024/02/17 00:54:15;;;;;;;15.30;8.60;;;11.70;99.90;;;;;;4983972;28;20550;-72
2024/02/17 00:56:43;;;;;;;17.67;9.13;;;11.70;99.90;;;;;;4979577;28;20488;-71
2024/02/17 00:59:10;;;;;;;20.90;11.57;;;11.60;99.90;;;;;;4978248;28;20941;-71
2024/02/17 01:01:37;;;;;;;18.03;9.70;;;11.60;99.90;;;;;;4977775;28;20437;-70
2024/02/17 01:04:04;;;;;;;23.63;10.27;;;11.50;99.90;;;;;;4974789;28;20474;-70
2024/02/17 01:06:31;;;;;;;22.30;10.70;;;11.50;99.90;;;;;;4973586;28;20961;-72
2024/02/17 01:08:57;;;;;;;18.77;8.40;;;11.50;99.90;;;;;;4975519;28;20465;-71
2024/02/17 01:11:24;;;;;;;22.27;12.27;;;11.60;99.90;;;;;;4978992;28;20482;-70
2024/02/17 01:13:52;;;;;;;24.37;11.37;;;11.60;99.90;;;;;;4979218;28;20836;-70
2024/02/17 01:16:19;;;;;;;26.27;11.67;;;11.60;99.90;;;;;;4972082;28;20470;-71
2024/02/17 01:18:46;;;;;;;16.30;9.30;;;11.60;99.90;;;;;;4970622;28;20592;-70
2024/02/17 01:21:12;;;;;;;32.90;12.00;;;11.60;99.90;;;;;;4963482;28;20480;-70
2024/02/17 01:23:39;;;;;;;22.67;10.13;;;11.50;99.90;;;;;;4976344;28;22680;-70
2024/02/17 01:26:07;;;;;;;15.37;11.50;;;11.50;99.90;;;;;;4970635;28;20454;-71
2024/02/17 01:28:33;;;;;;;23.70;11.30;;;11.50;99.90;;;;;;4962418;28;20621;-71
2024/02/17 01:31:02;;;;;;;16.07;10.27;;;11.50;99.90;;;;;;4963889;28;20462;-71
2024/02/17 01:33:28;;;;;;;19.90;10.87;;;11.50;99.90;;;;;;4961413;28;20470;-71
2024/02/17 01:35:55;;;;;;;18.87;11.90;;;11.50;99.90;;;;;;4961707;28;22252;-71
2024/02/17 01:38:22;;;;;;;16.90;9.17;;;11.40;99.90;;;;;;4971321;28;20517;-70
2024/02/17 01:40:49;;;;;;;21.90;11.57;;;11.40;99.90;;;;;;4970907;28;20467;-70
2024/02/17 01:43:16;;;;;;;20.20;12.70;;;11.40;99.90;;;;;;4973909;28;20460;-71
2024/02/17 01:45:43;;;;;;;15.07;9.20;;;11.30;99.90;;;;;;4974804;28;20751;-71
2024/02/17 01:48:11;;;;;;;27.73;13.43;;;11.30;99.90;;;;;;4965839;28;21107;-70
2024/02/17 01:50:38;;;;;;;19.23;11.33;;;11.40;99.90;;;;;;4966554;28;20473;-70
2024/02/17 01:53:06;;;;;;;16.30;9.20;;;11.40;99.90;;;;;;4975043;28;20549;-70
2024/02/17 01:55:33;;;;;;;17.10;8.80;;;11.50;99.90;;;;;;4977649;28;20846;-70
2024/02/17 01:58:00;;;;;;;22.27;11.60;;;11.30;99.90;;;;;;4971879;28;20485;-71
2024/02/17 02:00:28;;;;;;;17.80;10.90;;;11.40;99.90;;;;;;4963144;28;20587;-70
2024/02/17 02:02:55;;;;;;;24.13;11.40;;;11.50;99.90;;;;;;4962535;28;20663;-70
2024/02/17 02:05:24;;;;;;;20.23;11.90;;;11.50;99.90;;;;;;4971644;28;20469;-71
2024/02/17 02:07:50;;;;;;;21.20;11.30;;;11.50;99.90;;;;;;4970599;28;20890;-71
2024/02/17 02:10:17;;;;;;;22.77;11.77;;;11.50;99.90;;;;;;4963970;28;20462;-70
2024/02/17 02:12:45;;;;;;;23.97;11.47;;;11.40;99.90;;;;;;4965646;28;20463;-70
2024/02/17 02:15:12;;;;;;;21.07;10.97;;;11.40;99.90;;;;;;4966201;28;20457;-70
2024/02/17 02:17:40;;;;;;;17.33;9.00;;;11.40;99.90;;;;;;4968834;28;20549;-70
2024/02/17 02:20:10;;;;;;;19.83;8.97;;;11.40;99.90;;;;;;4971354;28;20458;-70
2024/02/17 02:22:41;;;;;;;19.13;10.97;;;11.40;99.90;;;;;;4974169;28;20553;-70
2024/02/17 02:25:19;;;;;;;13.80;9.40;;;11.50;99.90;;;;;;4972241;28;20962;-69
2024/02/17 02:27:47;;;;;;;19.17;10.33;;;11.50;99.90;;;;;;4971423;28;20573;-70
2024/02/17 02:30:14;;;;;;;13.70;8.77;;;11.60;99.90;;;;;;4970960;28;20450;-70
2024/02/17 02:32:41;;;;;;;24.43;11.53;;;11.50;99.90;;;;;;4967509;28;20462;-70
2024/02/17 02:35:08;;;;;;;17.40;9.10;;;11.50;99.90;;;;;;4974449;28;20491;-70
2024/02/17 02:37:35;;;;;;;20.03;9.80;;;11.50;99.90;;;;;;4971186;28;20860;-70
2024/02/17 02:40:02;;;;;;;21.47;10.90;;;11.50;99.90;;;;;;4972053;28;20470;-70
2024/02/17 02:42:29;;;;;;;22.30;11.20;;;11.60;99.90;;;;;;4974414;28;20469;-70
2024/02/17 02:44:57;;;;;;;20.27;11.40;;;11.60;99.90;;;;;;4967158;28;20489;-69
2024/02/17 02:47:24;;;;;;;21.47;13.30;;;11.50;99.90;;;;;;4972022;28;20495;-69
2024/02/17 02:49:51;;;;;;;24.60;10.57;;;11.40;99.90;;;;;;4975635;28;20473;-70
2024/02/17 02:52:18;;;;;;;34.90;11.30;;;11.30;99.90;;;;;;4974745;28;20549;-71
2024/02/17 02:54:44;;;;;;;21.03;11.60;;;11.40;99.90;;;;;;4974480;28;20486;-70
2024/02/17 02:57:11;;;;;;;13.37;8.67;;;11.30;99.90;;;;;;4969528;28;20518;-69
2024/02/17 02:59:38;;;;;;;25.00;12.07;;;11.20;99.90;;;;;;4974225;28;20536;-70
2024/02/17 03:02:06;;;;;;;19.00;10.40;;;11.10;99.90;;;;;;4972154;28;20504;-71
2024/02/17 03:04:33;;;;;;;17.27;10.83;;;11.10;99.90;;;;;;4972775;28;20475;-70
2024/02/17 03:06:59;;;;;;;20.10;12.03;;;11.10;99.90;;;;;;4973899;28;20500;-70
2024/02/17 03:09:26;;;;;;;12.20;7.53;;;11.10;99.90;;;;;;4972445;28;20524;-70
2024/02/17 03:11:53;;;;;;;24.67;8.93;;;11.10;99.90;;;;;;4972136;28;20462;-70
2024/02/17 03:14:20;;;;;;;20.23;8.97;;;11.10;99.90;;;;;;4971100;28;20473;-70
2024/02/17 03:16:47;;;;;;;14.77;8.20;;;11.00;99.90;;;;;;4966428;28;20486;-70
2024/02/17 03:19:15;;;;;;;18.57;10.57;;;11.00;99.90;;;;;;4975024;28;20458;-70
2024/02/17 03:21:42;;;;;;;18.00;8.37;;;10.90;99.90;;;;;;4968706;28;20462;-70
2024/02/17 03:24:10;;;;;;;21.97;12.30;;;10.90;99.90;;;;;;4970257;28;20724;-70
2024/02/17 03:26:37;;;;;;;20.83;9.43;;;11.00;99.90;;;;;;4975751;28;20458;-70
2024/02/17 03:29:03;;;;;;;19.13;10.10;;;11.00;99.90;;;;;;4970233;28;20480;-70
2024/02/17 03:31:30;;;;;;;20.67;9.90;;;11.00;99.90;;;;;;4964309;28;20918;-70
2024/02/17 03:33:58;;;;;;;14.17;8.50;;;11.10;99.90;;;;;;4972286;28;20558;-70
2024/02/17 03:36:27;;;;;;;27.17;10.13;;;11.00;99.90;;;;;;4968929;28;20612;-69
2024/02/17 03:38:53;;;;;;;24.20;12.33;;;11.10;99.90;;;;;;4969085;28;20466;-70
2024/02/17 03:41:20;;;;;;;29.77;10.80;;;11.10;99.90;;;;;;4976993;28;20470;-71
2024/02/17 03:43:47;;;;;;;19.80;11.40;;;11.10;99.90;;;;;;4966508;28;20923;-70
2024/02/17 03:46:13;;;;;;;22.37;11.80;;;11.20;99.90;;;;;;4976250;28;20485;-71
2024/02/17 03:48:40;;;;;;;23.13;10.30;;;11.10;99.90;;;;;;4976024;28;20820;-70
2024/02/17 03:51:07;;;;;;;16.27;10.23;;;11.20;99.90;;;;;;4967481;28;20868;-72
2024/02/17 03:53:36;;;;;;;28.30;10.27;;;11.10;99.90;;;;;;4969303;28;21297;-71
2024/02/17 03:56:03;;;;;;;18.07;9.60;;;11.10;99.90;;;;;;4975333;28;20492;-71
2024/02/17 03:58:30;;;;;;;26.30;10.50;;;11.10;99.90;;;;;;4969079;28;20813;-71
2024/02/17 04:00:57;;;;;;;19.37;9.10;;;11.20;99.90;;;;;;4972329;28;20459;-72
2024/02/17 04:03:23;;;;;;;30.43;13.23;;;11.20;99.90;;;;;;4973393;28;20477;-70
2024/02/17 04:05:50;;;;;;;28.40;12.93;;;11.20;99.90;;;;;;4978977;28;20930;-70
2024/02/17 04:08:17;;;;;;;24.37;10.53;;;11.00;99.90;;;;;;4973793;28;20493;-70
2024/02/17 04:10:45;;;;;;;21.37;11.27;;;11.10;99.90;;;;;;4966931;28;20843;-70
2024/02/17 04:13:12;;;;;;;19.90;10.77;;;11.10;99.90;;;;;;4966156;28;20466;-71
2024/02/17 04:15:39;;;;;;;26.60;10.60;;;11.10;99.90;;;;;;4968225;28;21410;-72
2024/02/17 04:18:08;;;;;;;19.40;8.27;;;11.10;99.90;;;;;;4971462;28;20484;-70
2024/02/17 04:20:37;;;;;;;24.27;11.37;;;11.00;99.90;;;;;;4972118;28;21115;-70
2024/02/17 04:23:04;;;;;;;14.27;6.30;;;10.90;99.90;;;;;;4969732;28;21176;-70
2024/02/17 04:25:31;;;;;;;30.07;9.50;;;11.10;99.90;;;;;;4973713;28;20969;-71
2024/02/17 04:27:59;;;;;;;16.77;10.40;;;11.00;99.90;;;;;;4972534;28;20492;-71
2024/02/17 04:30:26;;;;;;;18.47;10.37;;;11.00;99.90;;;;;;4970307;28;20586;-71
2024/02/17 04:32:53;;;;;;;22.70;10.80;;;11.10;99.90;;;;;;4970602;28;20468;-71
2024/02/17 04:35:19;;;;;;;24.53;11.63;;;11.00;99.90;;;;;;4974137;28;20487;-71
2024/02/17 04:37:46;;;;;;;17.57;9.67;;;11.00;99.90;;;;;;4966719;28;20492;-71
2024/02/17 04:40:13;;;;;;;27.10;11.03;;;11.00;99.90;;;;;;4975670;28;21157;-71
2024/02/17 04:42:40;;;;;;;18.17;8.77;;;11.00;99.90;;;;;;4976178;28;20516;-71
2024/02/17 04:45:10;;;;;;;21.47;10.30;;;11.10;99.90;;;;;;4972518;28;20946;-70
2024/02/17 04:47:37;;;;;;;24.00;12.87;;;11.10;99.90;;;;;;4974868;28;20538;-70
2024/02/17 04:50:04;;;;;;;17.00;9.73;;;11.10;99.90;;;;;;4972668;28;21083;-70
2024/02/17 04:52:31;;;;;;;20.43;12.00;;;11.10;99.90;;;;;;4968877;28;20470;-70
2024/02/17 04:54:57;;;;;;;19.17;11.80;;;11.10;99.90;;;;;;4978045;28;20458;-72
2024/02/17 04:57:24;;;;;;;17.60;8.70;;;11.10;99.90;;;;;;4972898;28;20482;-71
2024/02/17 04:59:51;;;;;;;20.00;11.03;;;11.10;99.90;;;;;;4968218;28;20976;-71
2024/02/17 05:02:19;;;;;;;21.60;10.57;;;11.10;99.90;;;;;;4969785;28;20462;-70
2024/02/17 05:04:46;;;;;;;26.93;11.87;;;11.10;99.90;;;;;;4976246;28;21025;-71
2024/02/17 05:07:13;;;;;;;16.13;9.63;;;11.10;99.90;;;;;;4973665;28;20586;-71
2024/02/17 05:09:39;;;;;;;17.37;11.23;;;11.10;99.90;;;;;;4973866;28;20466;-71
2024/02/17 05:12:06;;;;;;;23.97;10.60;;;11.00;99.90;;;;;;4963999;28;20500;-71
2024/02/17 05:14:36;;;;;;;15.87;10.20;;;11.00;99.90;;;;;;4968908;28;20462;-71
2024/02/17 05:17:03;;;;;;;36.40;13.93;;;10.90;99.90;;;;;;4967487;28;20490;-70
2024/02/17 05:19:31;;;;;;;26.70;10.10;;;10.90;99.90;;;;;;4972884;28;20474;-71
2024/02/17 05:21:58;;;;;;;15.37;9.97;;;11.00;99.90;;;;;;4972583;28;20828;-71
2024/02/17 05:24:25;;;;;;;17.57;9.50;;;10.90;99.90;;;;;;4979304;28;20466;-71
2024/02/17 05:26:52;;;;;;;20.77;11.53;;;11.10;99.90;;;;;;4976884;28;20479;-70
2024/02/17 05:29:19;;;;;;;16.07;10.03;;;11.10;99.90;;;;;;4969330;28;21136;-70
2024/02/17 05:31:46;;;;;;;22.23;12.13;;;11.20;99.90;;;;;;4975634;28;20473;-71
2024/02/17 05:34:13;;;;;;;23.87;11.93;;;11.10;99.90;;;;;;4973087;28;20528;-71
2024/02/17 05:36:41;;;;;;;18.40;11.47;;;11.20;99.90;;;;;;4974597;28;20498;-71
2024/02/17 05:39:09;;;;;;;29.53;12.27;;;11.20;99.90;;;;;;4974125;28;20467;-72
2024/02/17 05:41:36;;;;;;;21.13;11.33;;;11.20;99.90;;;;;;4975895;28;20486;-70
2024/02/17 05:44:02;;;;;;;24.63;12.00;;;11.20;99.90;;;;;;4973161;28;20485;-71
2024/02/17 05:46:29;;;;;;;21.60;10.50;;;11.20;99.90;;;;;;4967296;28;20608;-71
2024/02/17 05:48:56;;;;;;;26.17;11.17;;;11.20;99.90;;;;;;4976892;28;20817;-71
2024/02/17 05:51:23;;;;;;;22.57;11.27;;;11.10;99.90;;;;;;4975078;28;20493;-71
2024/02/17 05:53:51;;;;;;;18.17;9.50;;;11.10;99.90;;;;;;4974289;28;20460;-70
2024/02/17 05:56:17;;;;;;;18.23;11.53;;;11.10;99.90;;;;;;4979831;28;20482;-71
2024/02/17 05:58:45;;;;;;;21.53;11.80;;;11.10;99.90;;;;;;4974686;28;20511;-70
2024/02/17 06:01:12;;;;;;;13.27;9.10;;;11.10;99.90;;;;;;4978267;28;20478;-71
2024/02/17 06:03:39;;;;;;;31.10;12.17;;;11.10;99.90;;;;;;4977449;28;20496;-71
2024/02/17 06:06:06;;;;;;;21.50;13.43;;;11.20;99.90;;;;;;4977242;28;20537;-71
2024/02/17 06:08:32;;;;;;;19.97;12.27;;;11.20;99.90;;;;;;4978127;28;20589;-70
2024/02/17 06:11:00;;;;;;;24.13;10.77;;;11.10;99.90;;;;;;4979652;28;20464;-71
2024/02/17 06:13:28;;;;;;;20.23;12.63;;;11.10;99.90;;;;;;4978839;28;20462;-71
2024/02/17 06:15:55;;;;;;;19.90;8.43;;;11.20;99.90;;;;;;4973604;28;20534;-71
2024/02/17 06:21:13;;;;;;;15.67;10.30;;;11.20;99.90;;;;;;4977598;28;20516;-71
2024/02/17 06:23:41;;;;;;;17.80;10.90;;;11.10;99.90;;;;;;4973615;28;20509;-71
2024/02/17 06:26:23;;;;;;;23.90;12.40;;;11.00;99.90;;;;;;4978623;28;20550;-71
2024/02/17 06:28:51;;;;;;;17.77;10.17;;;11.10;99.90;;;;;;4977375;28;20817;-71
2024/02/17 06:31:18;;;;;;;27.37;13.20;;;11.10;99.90;;;;;;4977942;28;20466;-71
2024/02/17 06:33:44;;;;;;;26.93;13.60;;;11.10;99.90;;;;;;4976759;28;20469;-71
2024/02/17 06:36:12;;;;;;;23.87;12.20;;;11.20;99.90;;;;;;4981923;28;20482;-72
2024/02/17 06:38:38;;;;;;;23.27;13.03;;;11.10;99.90;;;;;;4972505;28;20846;-71
2024/02/17 06:41:05;;;;;;;19.37;11.17;;;11.10;99.90;;;;;;4978806;28;20472;-71
2024/02/17 06:43:33;;;;;;;23.97;12.20;;;11.10;99.90;;;;;;4977828;28;20454;-70
2024/02/17 06:46:01;;;;;;;19.60;11.03;;;11.10;99.90;;;;;;4975399;28;21033;-71
2024/02/17 06:48:28;;;;;;;20.23;11.57;;;11.00;99.90;;;;;;4978512;28;20478;-71
2024/02/17 06:50:54;;;;;;;19.73;10.80;;;11.00;99.90;;;;;;4979238;28;20494;-72
2024/02/17 06:53:21;;;;;;;27.87;12.10;;;11.00;99.90;;;;;;4977330;28;20462;-71
2024/02/17 06:55:48;;;;;;;20.97;11.73;;;11.00;99.90;;;;;;4980730;28;20459;-70
2024/02/17 06:58:14;;;;;;;20.93;12.07;;;11.00;99.90;;;;;;4972120;28;20494;-69
2024/02/17 07:00:42;;;;;;;20.37;11.20;;;11.10;99.90;;;;;;4969815;28;20880;-71
2024/02/17 07:03:09;;;;;;;14.17;9.67;;;11.10;99.90;;;;;;4975285;28;20470;-70
2024/02/17 07:05:38;;;;;;;22.70;10.70;;;11.10;99.90;;;;;;4980383;28;20473;-70
2024/02/17 07:08:07;;;;;;;23.50;11.93;;;11.00;99.90;;;;;;4978763;28;20490;-71
2024/02/17 07:10:35;;;;;;;24.80;12.97;;;11.10;99.90;;;;;;4980615;28;20553;-70
2024/02/17 07:13:02;;;;;;;17.37;12.30;;;11.10;99.90;;;;;;4977839;28;20466;-70
2024/02/17 07:15:29;;;;;;;21.20;11.87;;;11.20;99.90;;;;;;4974576;28;21063;-72
2024/02/17 07:18:00;;;;;;;24.47;13.70;;;11.20;99.90;;;;;;4970301;28;20605;-69
2024/02/17 07:20:28;;;;;;;28.77;12.80;;;11.20;99.90;;;;;;4973032;28;20470;-70
2024/02/17 07:22:54;;;;;;;45.97;13.97;;;11.20;99.90;;;;;;4974938;28;20465;-71
2024/02/17 07:25:21;;;;;;;26.93;11.70;;;11.20;99.90;;;;;;4976540;28;20972;-70
2024/02/17 07:27:48;;;;;;;18.83;10.77;;;11.20;99.90;;;;;;4980349;28;20480;-70
2024/02/17 07:30:16;;;;;;;24.57;12.50;;;11.20;99.90;;;;;;4974048;28;22249;-70
2024/02/17 07:32:42;;;;;;;17.13;11.10;;;11.30;99.90;;;;;;4976986;28;20462;-70
2024/02/17 07:35:10;;;;;;;21.47;11.73;;;11.30;99.90;;;;;;4978850;28;20477;-70
2024/02/17 07:37:37;;;;;;;22.10;13.33;;;11.30;99.90;;;;;;4977204;28;20498;-71
2024/02/17 07:40:08;;;;;;;20.87;11.00;;;11.30;99.90;;;;;;4975958;28;20803;-70
2024/02/17 07:42:35;;;;;;;23.17;11.67;;;11.30;99.90;;;;;;4975232;28;20470;-70
2024/02/17 07:45:01;;;;;;;24.40;14.40;;;11.30;99.90;;;;;;4962526;28;20478;-70
2024/02/17 07:47:28;;;;;;;19.00;10.70;;;11.40;99.90;;;;;;4975021;28;20514;-71
2024/02/17 07:49:55;;;;;;;20.20;12.20;;;11.50;99.90;;;;;;4979286;28;20462;-70
2024/02/17 07:52:24;;;;;;;21.50;10.40;;;11.40;99.90;;;;;;4971138;28;20966;-70
2024/02/17 07:54:50;;;;;;;20.73;12.67;;;11.50;99.90;;;;;;4975766;28;20621;-70
2024/02/17 07:57:17;;;;;;;22.77;11.07;;;11.60;99.90;;;;;;4980189;28;20497;-70
2024/02/17 07:59:44;;;;;;;27.03;12.13;;;11.60;99.90;;;;;;4975845;28;20485;-70
2024/02/17 08:02:11;;;;;;;20.70;11.27;;;11.60;99.90;;;;;;4966046;28;20479;-70
2024/02/17 08:04:38;;;;;;;17.60;11.10;;;11.50;99.90;;;;;;4977062;28;20793;-70
2024/02/17 08:07:05;;;;;;;20.00;11.13;;;11.70;99.90;;;;;;4974469;28;20493;-70
2024/02/17 08:09:33;;;;;;;22.40;11.40;;;11.70;99.90;;;;;;4975209;28;20459;-69
2024/02/17 08:12:00;;;;;;;24.13;12.83;;;11.90;99.90;;;;;;4974500;28;20474;-70
2024/02/17 08:14:27;;;;;;;22.20;12.33;;;11.80;99.90;;;;;;4969218;28;20455;-70
2024/02/17 08:16:53;;;;;;;23.67;13.23;;;11.80;99.90;;;;;;4965314;28;20707;-71
2024/02/17 08:19:20;;;;;;;19.80;12.23;;;11.90;99.90;;;;;;4972928;28;20473;-70
2024/02/17 08:21:47;;;;;;;22.20;11.30;;;12.00;99.90;;;;;;4967027;28;21136;-71
2024/02/17 08:24:14;;;;;;;21.50;10.90;;;12.10;99.90;;;;;;4968815;28;20463;-70
2024/02/17 08:26:42;;;;;;;20.93;11.20;;;12.10;99.90;;;;;;4967034;28;20482;-70
2024/02/17 08:29:08;;;;;;;23.20;11.33;;;12.00;99.90;;;;;;4970874;28;20987;-71
2024/02/17 08:31:35;;;;;;;24.03;11.90;;;12.00;99.90;;;;;;4959131;28;20466;-71
2024/02/17 08:34:02;;;;;;;21.43;10.80;;;11.90;99.90;;;;;;4968343;28;20469;-71
2024/02/17 08:36:29;;;;;;;25.67;13.90;;;11.70;99.90;;;;;;4959672;28;21564;-71
2024/02/17 08:38:56;;;;;;;25.43;11.47;;;11.80;99.90;;;;;;4973271;28;20476;-71
2024/02/17 08:41:22;;;;;;;22.83;12.40;;;11.80;99.90;;;;;;4973756;28;20470;-70
2024/02/17 08:43:50;;;;;;;24.13;11.60;;;11.80;99.90;;;;;;4969926;28;20477;-69
2024/02/17 08:46:18;;;;;;;20.93;11.63;;;11.80;99.90;;;;;;4968370;28;20977;-70
2024/02/17 08:48:44;;;;;;;23.23;12.33;;;11.80;99.90;;;;;;4969271;28;20984;-70
2024/02/17 08:51:11;;;;;;;19.40;12.87;;;11.70;99.90;;;;;;4980209;28;20467;-70
2024/02/17 08:53:38;;;;;;;20.70;12.43;;;11.80;99.90;;;;;;4977173;28;20454;-70
2024/02/17 08:56:05;;;;;;;27.60;14.20;;;11.90;99.90;;;;;;4973520;28;20466;-70
2024/02/17 08:58:32;;;;;;;21.97;12.90;;;11.90;99.90;;;;;;4970058;28;21145;-70
2024/02/17 09:01:02;;;;;;;22.63;12.67;;;11.90;99.90;;;;;;4971045;28;20466;-71
2024/02/17 09:03:30;;;;;;;33.30;12.50;;;12.00;99.90;;;;;;4979177;28;20558;-71
2024/02/17 09:05:57;;;;;;;21.03;13.00;;;12.10;99.90;;;;;;4974869;28;21373;-71
2024/02/17 09:08:24;;;;;;;27.20;13.87;;;12.10;99.90;;;;;;4963804;28;20486;-70
2024/02/17 09:10:51;;;;;;;22.10;12.50;;;12.10;99.90;;;;;;4975819;28;20465;-71
2024/02/17 09:13:17;;;;;;;32.30;14.57;;;12.10;99.90;;;;;;4973393;28;20478;-70
2024/02/17 09:15:45;;;;;;;26.60;13.87;;;12.20;99.90;;;;;;4975380;28;20568;-70
2024/02/17 09:18:13;;;;;;;26.47;13.80;;;12.10;99.90;;;;;;4975569;28;21054;-70
2024/02/17 09:20:40;;;;;;;31.57;15.37;;;12.20;99.90;;;;;;4967063;28;20478;-70
2024/02/17 09:23:07;;;;;;;25.87;14.93;;;12.50;99.90;;;;;;4962412;28;20467;-72
2024/02/17 09:25:34;;;;;;;27.03;13.50;;;12.50;99.90;;;;;;4972242;28;20581;-71
2024/02/17 09:28:01;;;;;;;26.47;13.93;;;12.40;99.90;;;;;;4975423;28;20482;-70
2024/02/17 09:30:29;;;;;;;32.07;15.57;;;12.20;99.90;;;;;;4972790;28;20828;-70
2024/02/17 09:32:55;;;;;;;29.70;15.00;;;12.10;99.90;;;;;;4969667;28;20470;-70
2024/02/17 09:35:24;;;;;;;28.63;14.00;;;12.00;99.90;;;;;;4971131;28;20913;-71
2024/02/17 09:37:55;;;;;;;23.20;13.90;;;12.00;99.90;;;;;;4958774;28;21001;-70
2024/02/17 09:40:22;;;;;;;30.23;14.20;;;11.90;99.90;;;;;;4967164;28;20870;-71
2024/02/17 09:42:50;;;;;;;23.53;14.33;;;11.90;99.90;;;;;;4968223;28;20475;-71
2024/02/17 09:45:34;;;;;;;32.43;13.67;;;12.00;99.90;;;;;;4963139;28;20896;-70
2024/02/17 09:48:02;;;;;;;22.17;14.40;;;11.90;99.90;;;;;;4975044;28;20573;-70
2024/02/17 09:50:30;;;;;;;34.30;18.93;;;12.00;99.90;;;;;;4973465;28;20467;-70
2024/02/17 09:53:01;;;;;;;30.50;18.80;;;11.90;99.90;;;;;;4969333;28;20454;-70
2024/02/17 09:55:27;;;;;;;30.73;15.20;;;11.90;99.90;;;;;;4968990;28;20466;-71
2024/02/17 09:57:54;;;;;;;26.80;14.40;;;12.00;99.90;;;;;;4970774;28;21099;-70
2024/02/17 10:00:21;;;;;;;29.23;17.30;;;12.20;99.90;;;;;;4973937;28;20450;-70
2024/02/17 10:02:51;;;;;;;25.60;14.30;;;12.30;99.90;;;;;;4971900;28;20471;-69
2024/02/17 10:05:20;;;;;;;28.57;16.13;;;12.30;99.90;;;;;;4969699;28;20454;-71
2024/02/17 10:07:50;;;;;;;31.83;17.53;;;12.40;99.90;;;;;;4972821;28;20484;-70
2024/02/17 10:10:17;;;;;;;28.70;16.33;;;12.40;99.90;;;;;;4965694;28;20482;-70
2024/02/17 10:12:49;;;;;;;32.03;14.33;;;12.20;99.90;;;;;;4966378;28;20461;-71
2024/02/17 10:15:16;;;;;;;34.93;18.30;;;12.20;99.90;;;;;;4968728;28;20513;-71
2024/02/17 10:17:43;;;;;;;29.07;16.20;;;12.20;99.90;;;;;;4967662;28;20485;-70
2024/02/17 10:20:11;;;;;;;33.17;16.00;;;12.20;99.90;;;;;;4967328;28;20466;-70
2024/02/17 10:22:38;;;;;;;28.43;15.23;;;12.40;99.90;;;;;;4963086;28;20471;-70
2024/02/17 10:25:07;;;;;;;32.00;16.67;;;12.50;99.90;;;;;;4961553;28;23282;-70
2024/02/17 10:27:36;;;;;;;39.50;16.67;;;12.50;99.90;;;;;;4965874;28;20535;-70
2024/02/17 10:30:11;;;;;;;29.87;15.20;;;12.60;99.90;;;;;;4968373;28;20494;-70
2024/02/17 10:32:38;;;;;;;22.73;13.70;;;12.60;99.90;;;;;;4969600;28;20461;-69
2024/02/17 10:35:06;;;;;;;28.90;15.30;;;12.70;99.90;;;;;;4969733;28;20466;-70
2024/02/17 10:37:34;;;;;;;28.87;16.53;;;12.80;99.90;;;;;;4968703;28;20492;-70
2024/02/17 10:40:03;;;;;;;28.93;12.33;;;13.00;99.90;;;;;;4970852;28;21055;-70
2024/02/17 10:42:33;;;;;;;26.13;14.67;;;13.10;99.90;;;;;;4960945;28;20467;-71
2024/02/17 10:45:00;;;;;;;28.60;16.03;;;13.10;99.90;;;;;;4972719;28;20529;-70
2024/02/17 10:47:32;;;;;;;26.80;17.67;;;13.00;99.90;;;;;;4966715;28;20478;-69
2024/02/17 10:50:05;;;;;;;29.07;13.10;;;13.00;99.90;;;;;;4953358;28;20481;-70
2024/02/17 10:52:40;;;;;;;33.57;14.23;;;13.00;99.90;;;;;;4969347;28;20501;-70
2024/02/17 10:55:11;;;;;;;29.23;13.73;;;13.00;99.90;;;;;;4970735;28;20558;-70
2024/02/17 10:57:49;;;;;;;24.73;13.23;;;12.80;99.90;;;;;;4969582;28;20613;-71
2024/02/17 11:00:18;;;;;;;29.50;14.53;;;12.70;99.90;;;;;;4971898;28;20462;-71
2024/02/17 11:02:46;;;;;;;30.93;14.30;;;12.70;99.90;;;;;;4969082;28;20458;-71
2024/02/17 11:05:14;;;;;;;25.20;13.60;;;12.70;99.90;;;;;;4973925;28;21005;-70
2024/02/17 11:07:42;;;;;;;25.77;13.83;;;12.90;99.90;;;;;;4970534;28;20573;-71
2024/02/17 11:10:11;;;;;;;30.97;15.03;;;13.00;99.90;;;;;;4972087;28;21255;-71
2024/02/17 11:12:39;;;;;;;38.53;16.73;;;13.10;99.90;;;;;;4965701;28;20489;-70
2024/02/17 11:15:08;;;;;;;29.27;16.10;;;13.20;99.90;;;;;;4969532;28;20470;-70
2024/02/17 11:17:37;;;;;;;38.43;19.37;;;13.20;99.90;;;;;;4973096;28;20469;-70
2024/02/17 11:20:06;;;;;;;32.13;16.43;;;13.10;99.90;;;;;;4970040;28;20551;-70
2024/02/17 11:22:34;;;;;;;33.90;19.00;;;13.20;99.90;;;;;;4958426;28;20471;-71
2024/02/17 11:25:01;;;;;;;30.13;17.57;;;13.20;99.90;;;;;;4969270;28;20484;-70
2024/02/17 11:27:28;;;;;;;25.27;16.67;;;13.20;99.90;;;;;;4977064;28;20542;-71
2024/02/17 11:29:59;;;;;;;33.10;17.60;;;13.20;99.90;;;;;;4970099;28;20489;-69
2024/02/17 11:32:28;;;;;;;27.47;14.57;;;13.10;99.90;;;;;;4974362;28;20459;-70
2024/02/17 11:34:56;;;;;;;29.83;14.80;;;13.10;99.90;;;;;;4972503;28;20497;-70
2024/02/17 11:37:23;;;;;;;30.20;15.90;;;13.10;99.90;;;;;;4970252;28;20544;-70
2024/02/17 11:39:51;;;;;;;42.47;20.40;;;13.10;99.90;;;;;;4968222;28;20467;-69
2024/02/17 11:42:18;;;;;;;31.97;18.60;;;13.20;99.90;;;;;;4964311;28;20454;-70
2024/02/17 11:44:46;;;;;;;32.80;17.40;;;13.20;99.90;;;;;;4969414;28;20855;-70
2024/02/17 11:47:15;;;;;;;27.13;16.20;;;13.20;99.90;;;;;;4960609;28;20495;-70
2024/02/17 11:49:43;;;;;;;36.77;16.73;;;13.20;99.90;;;;;;4973658;28;20469;-71
2024/02/17 11:52:10;;;;;;;32.70;16.13;;;13.10;99.90;;;;;;4969142;28;20538;-71
2024/02/17 11:54:39;;;;;;;32.30;18.57;;;13.20;99.90;;;;;;4957273;28;20981;-71
2024/02/17 11:57:07;;;;;;;32.67;21.30;;;13.30;99.90;;;;;;4971330;28;20601;-69
2024/02/17 11:59:35;;;;;;;34.07;18.30;;;13.20;99.90;;;;;;4969142;28;21048;-71
2024/02/17 12:02:04;;;;;;;30.10;18.10;;;13.30;99.90;;;;;;4964770;28;20467;-71
2024/02/17 12:04:33;;;;;;;28.63;15.03;;;13.20;99.90;;;;;;4956750;28;20478;-70
2024/02/17 12:07:03;;;;;;;34.77;17.57;;;13.20;99.90;;;;;;4963859;28;20493;-71
2024/02/17 12:09:31;;;;;;;34.60;20.30;;;13.30;99.90;;;;;;4972211;28;20648;-71
2024/02/17 12:11:59;;;;;;;46.30;20.30;;;13.50;99.90;;;;;;4964275;28;20494;-70
2024/02/17 12:14:25;;;;;;;34.17;17.10;;;13.60;99.90;;;;;;4963772;28;20451;-70
2024/02/17 12:16:52;;;;;;;33.60;18.90;;;13.60;99.90;;;;;;4962983;28;20486;-70
2024/02/17 12:19:19;;;;;;;34.40;17.43;;;13.60;99.90;;;;;;4966697;28;20871;-69
2024/02/17 12:21:49;;;;;;;37.23;21.67;;;13.40;99.90;;;;;;4966070;28;20477;-70
2024/02/17 12:24:17;;;;;;;35.37;18.97;;;13.30;99.90;;;;;;4964266;28;20486;-71
2024/02/17 12:26:44;;;;;;;34.03;16.80;;;13.20;99.90;;;;;;4963642;28;20494;-71
2024/02/17 12:29:10;;;;;;;45.43;17.00;;;13.20;99.90;;;;;;4970704;28;20826;-71
2024/02/17 12:31:37;;;;;;;36.60;18.77;;;13.30;99.90;;;;;;4976947;28;20809;-69